createdAt,value
2017-10-05T00:02:27.870Z,0.90
2017-10-05T00:04:56.060Z,0.73
2017-10-05T00:07:24.214Z,0.73
2017-10-05T00:09:59.274Z,0.93
2017-10-05T00:12:27.399Z,0.90
2017-10-05T00:15:07.262Z,1.13
2017-10-05T00:17:36.377Z,1.37
2017-10-05T00:20:06.410Z,1.50
2017-10-05T00:22:34.521Z,1.43
2017-10-05T00:25:10.582Z,1.10
2017-10-05T00:27:40.626Z,1.30
2017-10-05T00:32:48.099Z,1.20
2017-10-05T00:35:18.238Z,1.00
2017-10-05T00:37:51.381Z,1.23
2017-10-05T00:40:21.477Z,1.23
2017-10-05T00:42:57.597Z,1.43
2017-10-05T00:45:25.738Z,1.30
2017-10-05T00:47:53.836Z,2.10
2017-10-05T00:50:21.966Z,2.00
2017-10-05T00:53:13.360Z,2.50
2017-10-05T00:55:49.235Z,2.50
2017-10-05T00:58:18.300Z,2.73
2017-10-05T01:00:54.326Z,2.43
2017-10-05T01:03:22.433Z,2.90
2017-10-05T01:05:51.293Z,2.50
2017-10-05T01:08:19.392Z,2.60
2017-10-05T01:10:47.605Z,3.03
2017-10-05T01:13:19.242Z,3.97
2017-10-05T01:15:47.358Z,4.73
2017-10-05T01:18:21.598Z,4.93
2017-10-05T01:21:03.399Z,4.23
2017-10-05T01:23:32.265Z,4.57
2017-10-05T01:26:00.359Z,4.10
2017-10-05T01:28:29.390Z,3.73
2017-10-05T01:30:58.490Z,4.47
2017-10-05T01:33:26.574Z,3.50
2017-10-05T01:38:55.058Z,4.40
2017-10-05T01:41:27.235Z,4.20
2017-10-05T01:43:55.343Z,3.73
2017-10-05T01:46:23.426Z,3.90
2017-10-05T01:48:51.584Z,4.23
2017-10-05T01:51:25.456Z,3.50
2017-10-05T01:53:53.582Z,4.20
2017-10-05T01:56:22.629Z,4.77
2017-10-05T01:58:51.668Z,4.67
2017-10-05T02:01:19.789Z,4.90
2017-10-05T02:03:48.646Z,4.70
2017-10-05T02:06:18.524Z,5.10
2017-10-05T02:08:46.624Z,4.67
2017-10-05T02:11:14.733Z,5.53
2017-10-05T02:13:42.943Z,6.10
2017-10-05T02:16:17.901Z,5.90
2017-10-05T02:18:46.254Z,5.67
2017-10-05T02:21:14.400Z,6.10
2017-10-05T02:23:56.703Z,4.87
2017-10-05T02:26:27.879Z,4.90
2017-10-05T02:28:56.750Z,5.93
2017-10-05T02:31:25.620Z,5.67
2017-10-05T02:33:53.727Z,6.97
2017-10-05T02:36:23.746Z,5.50
2017-10-05T02:38:51.846Z,5.90
2017-10-05T02:41:20.887Z,6.93
2017-10-05T02:43:50.981Z,5.80
2017-10-05T02:46:30.170Z,5.70
2017-10-05T02:49:04.822Z,5.50
2017-10-05T02:51:39.538Z,5.70
2017-10-05T02:54:12.681Z,6.00
2017-10-05T02:56:40.796Z,6.37
2017-10-05T02:59:11.578Z,6.73
2017-10-05T03:01:40.666Z,6.63
2017-10-05T03:04:08.842Z,6.17
2017-10-05T03:06:44.368Z,6.10
2017-10-05T03:09:13.406Z,6.90
2017-10-05T03:11:42.495Z,7.40
2017-10-05T03:14:10.596Z,7.40
2017-10-05T03:16:40.665Z,6.90
2017-10-05T03:19:12.589Z,7.17
2017-10-05T03:21:40.766Z,6.77
2017-10-05T03:24:19.916Z,6.97
2017-10-05T03:26:52.526Z,7.50
2017-10-05T03:29:20.641Z,7.43
2017-10-05T03:31:48.752Z,7.47
2017-10-05T03:34:24.068Z,8.07
2017-10-05T03:36:52.170Z,9.13
2017-10-05T03:39:26.073Z,8.63
2017-10-05T03:41:57.308Z,8.30
2017-10-05T03:44:25.407Z,7.63
2017-10-05T03:46:53.512Z,9.27
2017-10-05T03:49:21.675Z,9.40
2017-10-05T03:51:54.865Z,9.20
2017-10-05T03:54:24.895Z,10.27
2017-10-05T03:56:53.372Z,9.87
2017-10-05T03:59:24.713Z,9.77
2017-10-05T04:02:05.076Z,10.20
2017-10-05T04:04:34.938Z,10.90
2017-10-05T04:07:03.056Z,11.70
2017-10-05T04:09:31.207Z,12.80
2017-10-05T04:12:01.294Z,11.80
2017-10-05T04:14:33.586Z,14.40
2017-10-05T04:17:02.675Z,13.37
2017-10-05T04:19:30.816Z,12.23
2017-10-05T04:22:01.126Z,11.90
2017-10-05T04:24:29.590Z,12.97
2017-10-05T04:26:57.698Z,11.77
2017-10-05T04:29:25.836Z,12.50
2017-10-05T04:31:55.816Z,10.50
2017-10-05T04:34:25.809Z,11.67
2017-10-05T04:36:53.931Z,12.07
2017-10-05T04:39:22.031Z,11.57
2017-10-05T04:41:53.626Z,11.60
2017-10-05T04:44:27.509Z,11.70
2017-10-05T04:46:56.561Z,11.23
2017-10-05T04:49:24.687Z,10.13
2017-10-05T04:51:52.831Z,11.10
2017-10-05T04:54:20.987Z,10.80
2017-10-05T04:56:54.526Z,10.63
2017-10-05T04:59:25.323Z,10.97
2017-10-05T05:02:10.258Z,9.30
2017-10-05T05:04:39.343Z,8.93
2017-10-05T05:07:09.461Z,11.47
2017-10-05T05:09:38.581Z,10.60
2017-10-05T05:12:13.338Z,10.50
2017-10-05T05:14:42.406Z,10.60
2017-10-05T05:17:10.638Z,10.27
2017-10-05T05:19:52.703Z,11.43
2017-10-05T05:22:20.855Z,9.63
2017-10-05T05:24:50.816Z,10.87
2017-10-05T05:27:19.346Z,9.73
2017-10-05T05:29:47.464Z,9.33
2017-10-05T05:35:17.286Z,7.83
2017-10-05T05:37:50.112Z,7.33
2017-10-05T05:40:24.911Z,7.07
2017-10-05T05:42:53.998Z,6.23
2017-10-05T05:45:22.178Z,6.37
2017-10-05T05:47:51.055Z,6.17
2017-10-05T05:50:19.942Z,6.10
2017-10-05T05:53:01.953Z,5.70
2017-10-05T05:55:33.305Z,5.13
2017-10-05T05:58:01.475Z,4.80
2017-10-05T06:00:29.667Z,4.20
2017-10-05T06:03:02.182Z,3.93
2017-10-05T06:05:31.275Z,4.23
2017-10-05T06:08:04.571Z,3.50
2017-10-05T06:10:33.622Z,3.53
2017-10-05T06:13:02.000Z,2.90
2017-10-05T06:15:32.082Z,2.73
2017-10-05T06:18:02.242Z,3.80
2017-10-05T06:20:32.361Z,2.60
2017-10-05T06:23:04.507Z,2.20
2017-10-05T06:25:37.527Z,2.40
2017-10-05T06:28:12.168Z,2.20
2017-10-05T06:30:40.268Z,2.30
2017-10-05T06:33:08.384Z,1.93
2017-10-05T06:35:47.486Z,1.97
2017-10-05T06:38:17.723Z,2.20
2017-10-05T06:40:45.822Z,2.00
2017-10-05T06:45:48.195Z,1.97
2017-10-05T06:48:18.191Z,2.10
2017-10-05T06:50:48.025Z,1.87
2017-10-05T06:53:18.352Z,2.30
2017-10-05T06:55:46.479Z,2.03
2017-10-05T06:58:15.632Z,1.77
2017-10-05T07:00:44.910Z,2.43
2017-10-05T07:03:14.006Z,1.67
2017-10-05T07:05:46.296Z,2.27
2017-10-05T07:08:14.431Z,1.80
2017-10-05T07:10:42.564Z,0.73
2017-10-05T07:13:17.033Z,0.20
2017-10-05T07:15:46.314Z,0.20
2017-10-05T07:18:14.418Z,0.30
2017-10-05T07:20:43.307Z,0.20
2017-10-05T07:23:13.383Z,0.20
2017-10-05T07:25:41.560Z,0.30
2017-10-05T07:28:22.202Z,0.30
2017-10-05T07:30:50.390Z,0.20
2017-10-05T07:33:18.510Z,0.30
2017-10-05T07:35:48.597Z,0.30
2017-10-05T07:38:16.744Z,0.30
2017-10-05T07:40:45.763Z,0.77
2017-10-05T07:43:29.893Z,0.20
2017-10-05T07:45:59.903Z,0.20
2017-10-05T07:48:30.985Z,0.20
2017-10-05T07:50:59.085Z,0.20
2017-10-05T07:53:27.228Z,0.20
2017-10-05T07:56:04.262Z,0.20
2017-10-05T07:58:34.665Z,0.30
2017-10-05T08:01:02.758Z,0.20
2017-10-05T08:03:33.607Z,0.20
2017-10-05T08:06:03.682Z,0.20
2017-10-05T08:08:33.721Z,0.30
2017-10-05T08:11:03.784Z,0.20
2017-10-05T08:13:32.650Z,0.30
2017-10-05T08:16:00.760Z,0.20
2017-10-05T08:18:29.865Z,0.30
2017-10-05T08:20:57.975Z,0.20
2017-10-05T08:23:30.561Z,0.30
2017-10-05T08:25:59.761Z,0.20
2017-10-05T08:28:28.850Z,0.20
2017-10-05T08:31:00.678Z,0.20
2017-10-05T08:33:29.745Z,0.20
2017-10-05T08:35:59.909Z,0.30
2017-10-05T08:38:34.012Z,0.30
2017-10-05T08:41:03.014Z,0.20
2017-10-05T08:43:33.275Z,0.20
2017-10-05T08:46:01.450Z,0.20
2017-10-05T08:48:29.630Z,0.30
2017-10-05T08:50:57.739Z,0.20
2017-10-05T08:53:25.873Z,0.20
2017-10-05T08:55:56.132Z,0.20
2017-10-05T08:58:24.262Z,0.20
2017-10-05T09:03:43.432Z,0.20
2017-10-05T09:06:11.606Z,0.20
2017-10-05T09:08:40.634Z,0.20
2017-10-05T09:11:09.685Z,0.20
2017-10-05T09:13:38.551Z,0.30
2017-10-05T09:16:08.620Z,0.20
2017-10-05T09:18:36.742Z,0.20
2017-10-05T09:21:05.790Z,0.20
2017-10-05T09:23:33.986Z,0.20
2017-10-05T09:26:02.085Z,0.20
2017-10-05T09:28:30.289Z,0.57
2017-10-05T09:31:02.480Z,1.30
2017-10-05T09:33:36.215Z,1.50
2017-10-05T09:36:05.301Z,1.33
2017-10-05T09:38:33.434Z,1.30
2017-10-05T09:41:03.653Z,1.50
2017-10-05T09:43:35.694Z,1.50
2017-10-05T09:46:03.906Z,1.30
2017-10-05T09:48:39.341Z,1.30
2017-10-05T09:51:09.410Z,1.30
2017-10-05T09:53:41.144Z,1.20
2017-10-05T09:56:09.934Z,1.20
2017-10-05T09:58:39.131Z,1.00
2017-10-05T10:01:14.156Z,1.30
2017-10-05T10:03:44.649Z,1.10
2017-10-05T10:06:12.963Z,1.20
2017-10-05T10:08:46.222Z,1.07
2017-10-05T10:11:16.346Z,1.37
2017-10-05T10:13:50.189Z,1.20
2017-10-05T10:16:19.299Z,1.20
2017-10-05T10:18:48.399Z,1.10
2017-10-05T10:21:21.911Z,1.00
2017-10-05T10:23:50.040Z,1.43
2017-10-05T10:26:36.336Z,1.40
2017-10-05T10:29:05.537Z,1.50
2017-10-05T10:31:34.678Z,1.60
2017-10-05T10:34:02.795Z,1.67
2017-10-05T10:36:34.995Z,1.77
2017-10-05T10:41:54.800Z,2.00
2017-10-05T10:44:30.059Z,2.00
2017-10-05T10:47:01.551Z,2.17
2017-10-05T10:49:29.653Z,2.10
2017-10-05T10:52:23.159Z,2.42
2017-10-05T10:54:51.262Z,2.10
2017-10-05T10:57:21.365Z,2.67
2017-10-05T10:59:49.560Z,2.50
2017-10-05T11:02:17.740Z,2.20
2017-10-05T11:04:45.838Z,2.23
2017-10-05T11:07:14.051Z,2.33
2017-10-05T11:09:44.888Z,2.07
2017-10-05T11:12:12.998Z,1.70
2017-10-05T11:14:42.487Z,2.00
2017-10-05T11:17:10.607Z,2.33
2017-10-05T11:19:38.818Z,2.30
2017-10-05T11:22:14.454Z,1.70
2017-10-05T11:24:48.210Z,1.43
2017-10-05T11:27:16.382Z,1.37
2017-10-05T11:29:47.841Z,0.90
2017-10-05T11:32:16.038Z,1.23
2017-10-05T11:34:45.220Z,0.70
2017-10-05T11:37:13.329Z,0.80
2017-10-05T11:39:41.503Z,0.80
2017-10-05T11:42:11.360Z,2.03
2017-10-05T11:44:39.476Z,0.60
2017-10-05T11:47:07.574Z,0.93
2017-10-05T11:49:39.264Z,0.70
2017-10-05T11:52:07.431Z,0.50
2017-10-05T11:54:35.554Z,0.70
2017-10-05T11:57:08.467Z,0.63
2017-10-05T11:59:42.176Z,0.50
2017-10-05T12:02:10.290Z,0.90
2017-10-05T12:04:40.387Z,0.50
2017-10-05T12:07:14.134Z,0.90
2017-10-05T12:09:42.471Z,0.70
2017-10-05T12:12:11.637Z,0.77
2017-10-05T12:14:41.774Z,0.60
2017-10-05T12:17:09.920Z,0.60
2017-10-05T12:19:38.060Z,0.97
2017-10-05T12:22:09.252Z,0.63
2017-10-05T12:24:37.410Z,0.53
2017-10-05T12:27:06.278Z,0.90
2017-10-05T12:29:37.944Z,0.90
2017-10-05T12:32:06.970Z,3.17
2017-10-05T12:34:39.444Z,0.90
2017-10-05T12:37:11.267Z,0.73
2017-10-05T12:39:42.770Z,0.53
2017-10-05T12:42:29.738Z,0.60
2017-10-05T12:44:58.058Z,0.50
2017-10-05T12:47:29.395Z,1.00
2017-10-05T12:49:57.530Z,0.90
2017-10-05T12:52:39.968Z,1.20
2017-10-05T12:55:08.843Z,0.90
2017-10-05T12:57:37.123Z,1.57
2017-10-05T13:00:05.307Z,0.70
2017-10-05T13:02:48.097Z,1.67
2017-10-05T13:05:17.384Z,5.43
2017-10-05T13:07:50.314Z,1.80
2017-10-05T13:10:19.387Z,0.83
2017-10-05T13:12:47.632Z,0.70
2017-10-05T13:15:20.813Z,0.87
2017-10-05T13:17:52.536Z,0.70
2017-10-05T13:20:20.687Z,0.80
2017-10-05T13:22:50.406Z,0.63
2017-10-05T13:25:18.622Z,0.70
2017-10-05T13:27:46.861Z,1.10
2017-10-05T13:30:14.959Z,0.70
2017-10-05T13:32:43.050Z,0.70
2017-10-05T13:35:12.923Z,1.03
2017-10-05T13:37:41.107Z,1.60
2017-10-05T13:40:09.211Z,0.80
2017-10-05T13:42:43.256Z,0.77
2017-10-05T13:45:13.158Z,1.23
2017-10-05T13:47:42.211Z,0.60
2017-10-05T13:50:10.318Z,1.20
2017-10-05T13:52:42.059Z,1.00
2017-10-05T13:55:10.955Z,0.73
2017-10-05T13:57:42.242Z,0.77
2017-10-05T14:00:10.386Z,0.73
2017-10-05T14:02:39.450Z,0.77
2017-10-05T14:05:08.552Z,1.10
2017-10-05T14:10:48.945Z,1.00
2017-10-05T14:13:18.278Z,0.80
2017-10-05T14:15:52.004Z,0.73
2017-10-05T14:18:22.078Z,1.17
2017-10-05T14:20:52.782Z,1.00
2017-10-05T14:23:21.674Z,0.80
2017-10-05T14:25:49.834Z,0.90
2017-10-05T14:28:18.335Z,0.80
2017-10-05T14:30:51.224Z,0.97
2017-10-05T14:33:23.738Z,1.10
2017-10-05T14:35:52.760Z,0.80
2017-10-05T14:38:21.575Z,0.93
2017-10-05T14:40:59.473Z,1.67
2017-10-05T14:43:35.303Z,1.20
2017-10-05T14:46:03.402Z,1.30
2017-10-05T14:48:31.509Z,0.70
2017-10-05T14:51:01.580Z,1.30
2017-10-05T14:53:48.215Z,1.43
2017-10-05T14:56:19.710Z,1.47
2017-10-05T14:58:59.231Z,1.10
2017-10-05T15:01:28.297Z,1.50
2017-10-05T15:03:57.447Z,2.33
2017-10-05T15:06:30.647Z,1.50
2017-10-05T15:09:01.557Z,1.03
2017-10-05T15:11:43.371Z,1.20
2017-10-05T15:14:12.416Z,1.63
2017-10-05T15:16:47.331Z,1.00
2017-10-05T15:19:20.758Z,1.30
2017-10-05T15:21:48.926Z,1.30
2017-10-05T15:24:21.363Z,1.50
2017-10-05T15:26:49.506Z,1.90
2017-10-05T15:29:22.771Z,1.50
2017-10-05T15:31:50.961Z,1.10
2017-10-05T15:34:19.849Z,1.50
2017-10-05T15:36:55.238Z,1.80
2017-10-05T15:39:23.471Z,2.70
2017-10-05T15:41:51.604Z,2.00
2017-10-05T15:44:19.740Z,2.07
2017-10-05T15:46:48.614Z,2.30
2017-10-05T15:49:16.859Z,2.90
2017-10-05T15:51:45.929Z,1.70
2017-10-05T15:54:18.461Z,1.53
2017-10-05T15:56:50.114Z,1.80
2017-10-05T15:59:20.292Z,2.20
2017-10-05T16:01:48.524Z,1.87
2017-10-05T16:04:16.644Z,1.20
2017-10-05T16:06:46.699Z,1.40
2017-10-05T16:09:15.794Z,2.57
2017-10-05T16:11:44.006Z,1.90
2017-10-05T16:14:12.909Z,2.27
2017-10-05T16:16:44.932Z,1.53
2017-10-05T16:19:13.161Z,2.00
2017-10-05T16:21:41.327Z,1.50
2017-10-05T16:24:17.549Z,2.27
2017-10-05T16:26:47.966Z,3.50
2017-10-05T16:29:18.390Z,2.10
2017-10-05T16:31:47.275Z,2.23
2017-10-05T16:34:16.378Z,2.00
2017-10-05T16:36:44.519Z,2.60
2017-10-05T16:39:17.666Z,1.83
2017-10-05T16:41:45.857Z,2.63
2017-10-05T16:44:14.162Z,2.27
2017-10-05T16:46:48.231Z,2.20
2017-10-05T16:49:16.357Z,2.27
2017-10-05T16:51:47.590Z,2.23
2017-10-05T16:54:21.675Z,2.60
2017-10-05T16:56:54.727Z,2.50
2017-10-05T16:59:25.098Z,2.70
2017-10-05T17:01:55.182Z,2.40
2017-10-05T17:04:23.294Z,2.20
2017-10-05T17:06:53.419Z,3.33
2017-10-05T17:09:24.317Z,2.57
2017-10-05T17:11:56.174Z,2.13
2017-10-05T17:14:25.230Z,1.93
2017-10-05T17:16:54.314Z,2.47
2017-10-05T17:19:25.805Z,2.07
2017-10-05T17:21:59.667Z,2.10
2017-10-05T17:24:27.795Z,2.80
2017-10-05T17:27:02.766Z,2.20
2017-10-05T17:29:31.638Z,1.93
2017-10-05T17:32:00.562Z,1.80
2017-10-05T17:34:33.691Z,1.90
2017-10-05T17:37:02.583Z,1.93
2017-10-05T17:39:30.671Z,2.37
2017-10-05T17:41:59.782Z,3.00
2017-10-05T17:44:30.014Z,2.67
2017-10-05T17:46:58.195Z,2.97
2017-10-05T17:49:26.282Z,2.67
2017-10-05T17:52:04.262Z,2.00
2017-10-05T17:54:32.372Z,3.50
2017-10-05T17:57:03.962Z,2.10
2017-10-05T17:59:32.192Z,2.80
2017-10-05T18:02:01.182Z,2.63
2017-10-05T18:04:30.734Z,2.03
2017-10-05T18:06:58.897Z,2.73
2017-10-05T18:09:29.007Z,3.07
2017-10-05T18:12:03.632Z,2.90
2017-10-05T18:14:46.065Z,2.00
2017-10-05T18:17:15.169Z,2.10
2017-10-05T18:19:46.355Z,2.50
2017-10-05T18:22:14.574Z,6.50
2017-10-05T18:24:46.147Z,3.00
2017-10-05T18:27:14.381Z,2.30
2017-10-05T18:29:44.569Z,2.23
2017-10-05T18:32:16.775Z,3.27
2017-10-05T18:34:48.626Z,2.70
2017-10-05T18:37:16.792Z,2.50
2017-10-05T18:39:52.946Z,2.40
2017-10-05T18:42:21.855Z,2.20
2017-10-05T18:44:52.838Z,2.00
2017-10-05T18:47:24.590Z,3.17
2017-10-05T18:49:55.930Z,2.30
2017-10-05T18:52:39.841Z,2.53
2017-10-05T18:55:08.011Z,2.27
2017-10-05T18:57:41.867Z,2.60
2017-10-05T19:00:11.787Z,2.83
2017-10-05T19:02:47.299Z,2.00
2017-10-05T19:05:15.399Z,2.57
2017-10-05T19:07:46.518Z,2.57
2017-10-05T19:10:15.479Z,1.93
2017-10-05T19:12:43.672Z,2.07
2017-10-05T19:15:14.802Z,2.10
2017-10-05T19:17:44.823Z,1.80
2017-10-05T19:20:20.995Z,1.90
2017-10-05T19:22:53.841Z,1.63
2017-10-05T19:25:21.994Z,2.00
2017-10-05T19:28:00.361Z,2.30
2017-10-05T19:30:30.546Z,3.13
2017-10-05T19:33:15.234Z,2.70
2017-10-05T19:35:43.434Z,3.17
2017-10-05T19:38:12.649Z,2.87
2017-10-05T19:40:41.037Z,2.10
2017-10-05T19:43:09.187Z,2.50
2017-10-05T19:45:37.359Z,2.47
2017-10-05T19:48:06.438Z,2.70
2017-10-05T19:50:34.940Z,1.73
2017-10-05T19:53:16.647Z,3.30
2017-10-05T19:58:19.903Z,2.10
2017-10-05T20:01:08.133Z,2.70
2017-10-05T20:03:45.289Z,3.37
2017-10-05T20:06:20.036Z,3.00
2017-10-05T20:08:49.061Z,3.03
2017-10-05T20:11:20.836Z,2.47
2017-10-05T20:13:53.150Z,2.70
2017-10-05T20:19:45.583Z,2.60
2017-10-05T20:22:28.559Z,2.57
2017-10-05T20:25:04.967Z,2.70
2017-10-05T20:27:50.663Z,2.53
2017-10-05T20:30:24.420Z,2.43
2017-10-05T20:32:54.432Z,3.27
2017-10-05T20:35:47.281Z,2.70
2017-10-05T20:38:17.603Z,3.20
